Time;durP1;ratioP1;P1;durP2;ratioP2;P2;SDS_P1;SDS_P2;PMS_P1;PMS_P2;Temp;Humidity;BMP_temperature;BMP_pressure;BME280_temperature;BME280_humidity;BME280_pressure;Samples;Min_cycle;Max_cycle;Signal;HPM_P1;HPM_P2
2021/05/31 00:00:01;;;;;;;7.72;5.97;;;;;;;12.92;66.34;100880.81;5342526;26;20084;-81
2021/05/31 00:02:28;;;;;;;6.55;5.20;;;;;;;12.78;67.00;100880.03;5322621;26;20116;-80
2021/05/31 00:04:55;;;;;;;8.38;5.43;;;;;;;13.20;65.67;100875.28;5340862;26;20064;-80
2021/05/31 00:07:22;;;;;;;6.97;5.45;;;;;;;13.44;64.32;100879.47;5342810;26;20116;-80
2021/05/31 00:09:54;;;;;;;6.70;5.30;;;;;;;13.43;62.89;100876.88;5323559;26;20083;-80
2021/05/31 00:12:21;;;;;;;6.28;4.62;;;;;;;13.24;63.73;100877.03;5323383;26;20542;-80
2021/05/31 00:14:48;;;;;;;8.48;5.47;;;;;;;13.39;62.36;100876.03;5343441;26;20072;-81
2021/05/31 00:17:15;;;;;;;8.35;6.15;;;;;;;13.29;63.66;100879.62;5323438;26;20072;-81
2021/05/31 00:19:43;;;;;;;7.37;5.28;;;;;;;13.50;62.70;100878.53;5323550;26;20068;-80
2021/05/31 00:22:09;;;;;;;6.55;5.28;;;;;;;13.07;64.63;100885.06;5343269;26;20116;-80
2021/05/31 00:24:36;;;;;;;8.80;6.53;;;;;;;12.92;65.48;100883.44;5342126;26;20064;-81
2021/05/31 00:27:04;;;;;;;9.27;5.95;;;;;;;12.69;66.09;100880.97;5323159;26;20106;-81
2021/05/31 00:29:31;;;;;;;8.00;6.30;;;;;;;12.63;65.97;100883.63;5343434;26;20052;-80
2021/05/31 00:31:59;;;;;;;8.18;5.50;;;;;;;12.45;67.28;100883.75;5324077;26;20084;-81
2021/05/31 00:34:26;;;;;;;7.05;5.70;;;;;;;12.39;66.71;100883.81;5323522;26;20076;-80
2021/05/31 00:36:53;;;;;;;7.50;5.55;;;;;;;12.44;66.37;100880.25;5323331;26;20048;-80
2021/05/31 00:39:21;;;;;;;7.62;6.12;;;;;;;12.59;65.94;100875.75;5343075;26;20362;-80
2021/05/31 00:41:51;;;;;;;7.55;5.62;;;;;;;12.55;66.46;100872.25;5343218;26;20068;-80
2021/05/31 00:44:19;;;;;;;7.78;5.40;;;;;;;12.57;66.48;100878.41;5343256;26;20527;-80
2021/05/31 00:46:46;;;;;;;6.60;4.97;;;;;;;12.69;65.29;100875.69;5343230;26;20458;-80
2021/05/31 00:49:17;;;;;;;7.37;5.37;;;;;;;12.47;66.79;100881.97;5323679;26;20422;-81
2021/05/31 00:51:45;;;;;;;7.90;5.53;;;;;;;12.75;65.83;100872.13;5323269;26;20575;-81
2021/05/31 00:54:12;;;;;;;9.52;5.87;;;;;;;12.48;66.70;100873.19;5343254;26;20060;-80
2021/05/31 00:56:42;;;;;;;7.78;6.35;;;;;;;12.13;68.66;100870.75;5343197;26;20182;-80
2021/05/31 00:59:09;;;;;;;7.62;6.15;;;;;;;11.91;69.76;100868.22;5343344;26;20052;-80
2021/05/31 01:01:37;;;;;;;7.12;5.65;;;;;;;11.87;69.77;100869.09;5343669;26;20487;-80
2021/05/31 01:04:05;;;;;;;7.40;6.57;;;;;;;11.85;68.94;100865.56;5341695;26;20128;-80
2021/05/31 01:06:36;;;;;;;8.15;6.35;;;;;;;11.86;69.63;100869.97;5343093;26;20328;-80
2021/05/31 01:09:12;;;;;;;9.02;6.78;;;;;;;11.86;69.65;100861.22;5323500;26;20111;-80
2021/05/31 01:11:51;;;;;;;8.68;6.28;;;;;;;11.52;71.45;100862.12;5343628;26;20115;-80
2021/05/31 01:14:24;;;;;;;6.63;5.50;;;;;;;11.76;70.84;100865.56;5324036;26;20060;-79
2021/05/31 01:17:21;;;;;;;8.63;5.95;;;;;;;11.98;69.43;100850.63;5323687;26;20059;-80
2021/05/31 01:19:48;;;;;;;9.85;6.30;;;;;;;11.94;69.16;100862.94;5343654;26;20085;-80
2021/05/31 01:22:17;;;;;;;7.68;6.25;;;;;;;12.18;68.33;100861.06;5323196;26;20427;-80
2021/05/31 01:24:49;;;;;;;8.20;5.50;;;;;;;12.14;68.22;100861.97;5323856;26;20061;-80
2021/05/31 01:27:20;;;;;;;7.10;5.40;;;;;;;12.03;68.07;100857.63;5343311;26;20149;-81
2021/05/31 01:30:10;;;;;;;7.60;6.12;;;;;;;11.81;69.16;100854.16;5343594;26;20517;-80
2021/05/31 01:32:41;;;;;;;9.32;6.30;;;;;;;12.11;67.75;100848.81;5343061;26;20131;-80
2021/05/31 01:35:17;;;;;;;7.03;5.12;;;;;;;12.30;67.35;100847.84;5343869;26;20746;-80
2021/05/31 01:37:46;;;;;;;8.27;6.35;;;;;;;11.88;68.45;100849.75;5323193;26;20157;-81
2021/05/31 01:40:17;;;;;;;7.82;5.80;;;;;;;12.04;67.87;100846.19;5324743;26;20430;-80
2021/05/31 01:42:45;;;;;;;8.05;6.32;;;;;;;11.90;68.37;100850.66;5323373;26;20099;-80
2021/05/31 01:45:13;;;;;;;7.82;5.70;;;;;;;11.97;67.24;100848.84;5323257;26;20088;-80
2021/05/31 01:47:41;;;;;;;7.43;5.95;;;;;;;11.85;67.77;100849.78;5343408;26;20119;-80
2021/05/31 01:50:10;;;;;;;7.22;5.55;;;;;;;12.21;66.94;100847.88;5323086;26;20053;-80
2021/05/31 01:52:44;;;;;;;9.13;6.27;;;;;;;12.07;67.24;100847.94;5341564;26;20064;-80
2021/05/31 01:55:14;;;;;;;13.30;6.15;;;;;;;12.22;66.91;100852.25;5343485;26;20067;-80
2021/05/31 01:57:44;;;;;;;;;;;;;;;12.04;67.30;100862.00;5323443;26;20094;-81
2021/05/31 02:00:15;;;;;;;7.40;5.35;;;;;;;12.05;66.99;100853.22;5341200;26;19939;-81
2021/05/31 02:02:50;;;;;;;6.90;5.20;;;;;;;11.98;66.85;100861.16;5324147;26;20080;-81
2021/05/31 02:05:16;;;;;;;8.23;5.95;;;;;;;12.12;66.51;100855.81;5343281;26;20087;-81
2021/05/31 02:07:44;;;;;;;8.88;6.28;;;;;;;12.11;65.70;100854.06;5323216;26;20060;-81
2021/05/31 02:10:13;;;;;;;7.97;5.32;;;;;;;11.94;66.07;100862.94;5322951;26;20049;-81
2021/05/31 02:12:58;;;;;;;7.82;5.53;;;;;;;12.18;65.77;100853.19;5323442;26;20390;-81
2021/05/31 02:15:40;;;;;;;7.18;5.87;;;;;;;11.59;68.21;100858.62;5323558;26;20117;-81
2021/05/31 02:18:40;;;;;;;9.88;6.47;;;;;;;11.93;66.58;100853.25;5343550;26;20053;-81
2021/05/31 02:21:09;;;;;;;7.53;6.00;;;;;;;10.72;72.95;100857.81;5342777;26;20068;-81
2021/05/31 02:23:39;;;;;;;8.05;5.43;;;;;;;11.43;69.73;100846.38;5322745;26;20112;-81
2021/05/31 02:26:07;;;;;;;7.80;5.85;;;;;;;12.06;67.35;100846.22;5343177;26;20064;-81
2021/05/31 02:28:33;;;;;;;8.15;6.60;;;;;;;11.06;71.75;100841.19;5343112;26;20065;-81
2021/05/31 02:31:03;;;;;;;8.18;6.00;;;;;;;11.58;70.06;100841.06;5314405;26;20122;-80
2021/05/31 02:33:30;;;;;;;8.43;6.32;;;;;;;11.54;69.15;100839.34;5323209;26;20402;-80
2021/05/31 02:35:56;;;;;;;9.00;6.05;;;;;;;11.63;68.81;100840.19;5341289;26;20064;-80
2021/05/31 02:38:23;;;;;;;8.27;6.00;;;;;;;11.94;67.74;100833.97;5322915;26;20070;-79
2021/05/31 02:40:51;;;;;;;9.57;7.35;;;;;;;11.85;67.51;100827.81;5342948;26;20159;-80
2021/05/31 02:43:19;;;;;;;8.68;6.05;;;;;;;11.91;67.34;100822.56;5343485;26;20677;-80
2021/05/31 02:45:48;;;;;;;8.82;6.47;;;;;;;11.99;67.50;100818.12;5323364;26;20479;-79
2021/05/31 02:48:25;;;;;;;8.30;6.18;;;;;;;11.77;68.07;100822.59;5342791;26;20048;-79
2021/05/31 02:51:09;;;;;;;10.85;5.93;;;;;;;11.98;66.74;100814.62;5325947;26;20059;-80
2021/05/31 02:53:36;;;;;;;10.15;5.25;;;;;;;12.10;66.19;100811.06;5342954;26;20055;-80
2021/05/31 02:56:03;;;;;;;8.65;5.65;;;;;;;12.07;64.97;100813.72;5342623;26;20087;-80
2021/05/31 02:58:30;;;;;;;8.77;5.65;;;;;;;11.86;66.91;100819.09;5323008;26;20117;-80
2021/05/31 03:00:57;;;;;;;7.78;5.75;;;;;;;12.09;66.30;100818.94;5343216;26;20053;-80
2021/05/31 03:03:24;;;;;;;6.93;5.85;;;;;;;11.70;67.06;100818.22;5342595;26;20056;-80
2021/05/31 03:05:51;;;;;;;9.60;5.53;;;;;;;12.05;65.74;100821.59;5342912;26;20060;-80
2021/05/31 03:08:18;;;;;;;8.60;6.30;;;;;;;11.95;66.14;100825.19;5322808;26;20052;-80
2021/05/31 03:10:45;;;;;;;9.60;5.80;;;;;;;11.84;67.04;100826.94;5322648;26;20075;-80
2021/05/31 03:13:12;;;;;;;9.50;6.03;;;;;;;11.20;69.19;100821.84;5342688;26;20117;-80
2021/05/31 03:15:39;;;;;;;9.98;6.28;;;;;;;11.31;69.49;100830.63;5343057;26;20703;-80
2021/05/31 03:18:07;;;;;;;7.25;5.93;;;;;;;11.26;69.01;100820.09;5342649;26;20076;-80
2021/05/31 03:20:34;;;;;;;8.73;5.72;;;;;;;11.75;67.52;100827.84;5343005;26;20072;-80
2021/05/31 03:23:01;;;;;;;8.18;6.37;;;;;;;11.60;67.29;100828.78;5323195;26;20198;-80
2021/05/31 03:25:28;;;;;;;7.87;6.80;;;;;;;11.37;69.14;100826.22;5343289;26;20086;-80
2021/05/31 03:27:58;;;;;;;7.95;6.35;;;;;;;11.74;68.23;100831.38;5322786;26;20386;-80
2021/05/31 03:30:25;;;;;;;7.30;5.43;;;;;;;11.81;68.40;100833.09;5322885;26;20120;-80
2021/05/31 03:32:53;;;;;;;8.55;5.70;;;;;;;12.30;66.59;100826.75;5343097;26;20076;-80
2021/05/31 03:35:21;;;;;;;8.35;5.55;;;;;;;12.46;65.76;100822.25;5323754;26;20075;-80
2021/05/31 03:37:48;;;;;;;7.47;5.40;;;;;;;12.66;64.23;100835.28;5322662;26;20060;-81
2021/05/31 03:40:21;;;;;;;7.00;5.15;;;;;;;12.91;63.81;100828.06;5342682;26;20066;-80
2021/05/31 03:42:49;;;;;;;8.48;5.68;;;;;;;13.23;63.07;100822.47;5342904;26;20105;-80
2021/05/31 03:45:17;;;;;;;7.57;5.50;;;;;;;13.19;62.65;100832.19;5342603;26;20400;-80
2021/05/31 03:47:44;;;;;;;12.18;5.25;;;;;;;13.74;60.40;100833.41;5322946;26;20044;-81
2021/05/31 03:50:12;;;;;;;8.32;5.65;;;;;;;13.25;62.66;100833.94;5343104;26;20053;-80
2021/05/31 03:52:39;;;;;;;7.07;5.37;;;;;;;13.95;60.55;100829.63;5323413;26;20470;-80
2021/05/31 03:55:08;;;;;;;8.85;4.87;;;;;;;14.83;57.73;100823.09;5322914;26;20082;-80
2021/05/31 03:57:36;;;;;;;7.23;4.20;;;;;;;16.05;53.90;100827.88;5322667;26;20060;-80
2021/05/31 04:00:09;;;;;;;8.48;4.18;;;;;;;16.68;52.08;100814.06;5343202;26;20029;-81
2021/05/31 04:02:41;;;;;;;9.27;4.65;;;;;;;17.31;50.10;100811.59;5323367;26;20064;-81
2021/05/31 04:05:11;;;;;;;7.93;4.40;;;;;;;17.28;49.78;100801.06;5323240;26;20065;-81
2021/05/31 04:13:09;;;;;;;14.57;6.30;;;;;;;16.45;51.77;100803.13;5342821;26;20056;-81
2021/05/31 04:15:36;;;;;;;9.10;5.78;;;;;;;16.31;52.74;100799.00;5322314;26;20060;-81
2021/05/31 04:18:03;;;;;;;7.03;5.32;;;;;;;16.61;51.94;100793.88;5322636;26;20748;-81
2021/05/31 04:20:30;;;;;;;10.80;6.20;;;;;;;15.96;53.86;100804.22;5322525;26;20056;-81
2021/05/31 04:22:57;;;;;;;13.07;5.15;;;;;;;15.92;54.14;100798.12;5322887;26;20109;-81
2021/05/31 04:25:25;;;;;;;9.18;5.43;;;;;;;16.20;53.69;100808.97;5322634;26;20073;-81
2021/05/31 04:27:51;;;;;;;8.68;5.15;;;;;;;15.96;54.19;100802.44;5322387;26;20071;-81
2021/05/31 04:30:19;;;;;;;8.90;5.40;;;;;;;16.05;53.81;100802.22;5322457;26;20688;-81
2021/05/31 04:32:47;;;;;;;5.57;4.65;;;;;;;16.27;54.06;100807.94;5322811;26;20077;-81
2021/05/31 04:35:14;;;;;;;8.00;5.37;;;;;;;16.49;53.03;100795.03;5322435;26;20072;-81
2021/05/31 04:37:41;;;;;;;6.87;5.00;;;;;;;16.13;53.68;100802.06;5322470;26;20067;-81
2021/05/31 04:40:09;;;;;;;6.22;5.00;;;;;;;15.99;53.83;100804.16;5322511;26;20525;-81
2021/05/31 04:42:36;;;;;;;6.55;5.37;;;;;;;15.76;55.01;100802.84;5342504;26;20074;-82
2021/05/31 04:45:05;;;;;;;7.60;4.85;;;;;;;15.79;55.08;100794.81;5342583;26;20060;-81
2021/05/31 04:47:32;;;;;;;9.52;6.53;;;;;;;15.12;56.62;100796.16;5342269;26;20508;-81
2021/05/31 04:49:59;;;;;;;7.37;5.55;;;;;;;14.88;57.54;100785.09;5341990;26;20118;-81
2021/05/31 04:52:25;;;;;;;6.93;5.57;;;;;;;14.98;57.48;100791.97;5323300;26;20089;-81
2021/05/31 04:54:53;;;;;;;7.70;6.00;;;;;;;15.17;57.20;100795.12;5344424;26;20080;-82
2021/05/31 04:57:21;;;;;;;9.40;5.03;;;;;;;15.33;57.09;100789.56;5344036;26;20052;-81
2021/05/31 04:59:48;;;;;;;7.55;5.62;;;;;;;15.53;56.38;100790.06;5325752;26;20072;-83
2021/05/31 05:09:43;;;;;;;8.18;6.12;;;;;;;16.25;54.68;100785.87;5272179;27;20073;-82
2021/05/31 05:13:14;;;;;;;9.82;5.90;;;;;;;16.53;55.64;100775.50;5279209;27;20068;-82
2021/05/31 05:17:02;;;;;;;8.98;6.03;;;;;;;15.80;56.41;100771.88;5259037;27;20071;-82
2021/05/31 05:24:08;;;;;;;7.75;5.60;;;;;;;15.13;59.04;100771.41;5123280;28;20124;-82
2021/05/31 05:26:34;;;;;;;7.55;5.03;;;;;;;15.16;58.11;100777.50;5126043;28;20115;-80
2021/05/31 05:29:02;;;;;;;10.30;5.87;;;;;;;15.02;58.78;100778.66;5127571;28;20121;-81
2021/05/31 05:31:29;;;;;;;8.10;5.10;;;;;;;14.99;58.71;100780.47;5174699;27;20250;-82
2021/05/31 05:34:00;;;;;;;8.15;5.87;;;;;;;15.47;59.19;100786.63;5192780;27;20071;-82
2021/05/31 05:36:43;;;;;;;8.30;5.80;;;;;;;15.49;57.99;100783.06;5209956;27;20686;-82
2021/05/31 08:20:49;;;;;;;6.15;5.25;;;;;;;21.26;43.82;100730.03;5109813;27;20076;-81
2021/05/31 08:24:37;;;;;;;;;;;;;;;;;;;;;
2021/05/31 08:32:12;;;;;;;;;;;;;;;;;;;;;
2021/05/31 10:52:24;;;;;;;2.22;1.35;;;;;;;26.68;29.44;100631.38;5232352;27;20079;-83
2021/05/31 10:55:08;;;;;;;9.90;3.55;;;;;;;25.98;26.08;100634.28;5235195;27;20082;-80
2021/05/31 10:57:41;;;;;;;5.15;2.20;;;;;;;26.03;26.59;100624.09;5302190;27;20098;-82
2021/05/31 11:00:25;;;;;;;2.87;1.80;;;;;;;26.76;26.86;100619.16;5301255;27;20086;-83
2021/05/31 11:03:12;;;;;;;8.45;2.10;;;;;;;26.80;27.38;100610.78;5323062;27;20072;-81
2021/05/31 11:05:59;;;;;;;2.87;1.50;;;;;;;27.82;27.01;100604.34;5303252;27;20144;-82
2021/05/31 11:08:33;;;;;;;2.10;1.75;;;;;;;26.36;25.52;100605.75;5325633;27;20057;-82
2021/05/31 11:11:03;;;;;;;5.82;2.30;;;;;;;26.73;26.65;100606.78;5323531;27;20051;-82
2021/05/31 11:13:50;;;;;;;3.97;2.37;;;;;;;26.46;29.87;100610.37;5306626;27;20072;-81
2021/05/31 11:16:35;;;;;;;2.00;1.87;;;;;;;26.76;29.37;100605.69;5302341;27;20025;-82
2021/05/31 11:19:20;;;;;;;;;;;;;;;;;;;;;
2021/05/31 11:21:58;;;;;;;7.00;2.25;;;;;;;25.73;27.93;100596.47;5323629;27;20036;-81
2021/05/31 11:24:29;;;;;;;5.50;2.28;;;;;;;26.63;32.45;100597.63;5322323;27;20118;-82
2021/05/31 11:27:06;;;;;;;4.10;1.58;;;;;;;26.33;28.35;100596.03;5301445;27;20411;-82
2021/05/31 11:30:07;;;;;;;5.18;2.03;;;;;;;26.15;28.30;100591.88;5297811;27;20065;-83
2021/05/31 11:33:00;;;;;;;3.72;2.35;;;;;;;26.13;29.08;100589.31;5302912;27;20070;-83
2021/05/31 11:35:39;;;;;;;2.10;1.67;;;;;;;26.02;28.34;100591.88;5301239;27;20118;-82
2021/05/31 11:38:07;;;;;;;2.95;1.67;;;;;;;25.67;27.37;100573.50;5322323;27;20025;-81
2021/05/31 11:40:42;;;;;;;2.60;2.00;;;;;;;25.95;29.37;100577.09;5302497;27;20078;-82
2021/05/31 11:54:37;;;;;;;3.53;2.20;;;;;;;24.18;31.49;100588.16;5147417;27;20454;-83
2021/05/31 12:02:10;;;;;;;;;;;;;;;;;;;;;
2021/05/31 12:22:46;;;;;;;2.43;1.40;;;;;;;23.24;33.52;100581.91;5379720;26;975251;-83
2021/05/31 12:25:33;;;;;;;3.53;1.45;;;;;;;23.23;33.64;100574.81;5400873;26;20106;-82
2021/05/31 12:28:04;;;;;;;2.55;1.65;;;;;;;24.37;31.03;100568.25;5397915;26;20630;-81
2021/05/31 12:30:31;;;;;;;1.92;1.40;;;;;;;25.42;30.37;100565.34;5399189;26;20043;-83
2021/05/31 12:33:14;;;;;;;2.08;1.70;;;;;;;24.70;31.65;100574.28;5416359;26;20063;-84
2021/05/31 12:35:50;;;;;;;3.22;1.50;;;;;;;24.19;30.62;100595.25;5416464;26;20079;-83
2021/05/31 12:38:20;;;;;;;5.47;2.03;;;;;;;23.90;30.68;100588.06;5417140;26;20059;-82
2021/05/31 12:40:50;;;;;;;3.85;1.95;;;;;;;23.79;35.80;100585.97;5415705;26;20130;-83
2021/05/31 12:43:38;;;;;;;3.75;1.87;;;;;;;23.57;39.83;100591.69;5397033;26;20122;-83
2021/05/31 12:46:25;;;;;;;5.05;2.37;;;;;;;23.68;40.13;100585.69;5413537;26;20070;-84
2021/05/31 12:49:00;;;;;;;5.35;3.62;;;;;;;24.22;40.97;100584.34;5395615;26;20056;-83
2021/05/31 12:51:38;;;;;;;6.53;4.95;;;;;;;23.75;41.40;100576.41;5396228;26;20436;-83
2021/05/31 12:54:32;;;;;;;7.03;4.37;;;;;;;24.80;38.42;100568.34;5416627;26;20059;-84
2021/05/31 12:57:17;;;;;;;3.50;2.50;;;;;;;24.97;36.90;100570.81;5395338;26;20107;-82
2021/05/31 12:59:55;;;;;;;2.97;2.20;;;;;;;25.15;34.18;100564.34;5414778;26;20047;-83
2021/05/31 13:02:29;;;;;;;5.00;2.03;;;;;;;25.43;34.84;100557.16;5395211;26;20436;-85
2021/05/31 13:05:18;;;;;;;7.22;2.70;;;;;;;25.26;33.01;100562.75;5414252;26;20051;-85
2021/05/31 13:07:51;;;;;;;7.50;2.33;;;;;;;25.41;32.69;100547.44;5416067;26;20188;-84
2021/05/31 13:10:29;;;;;;;3.47;2.10;;;;;;;25.87;31.40;100549.84;5416987;26;20048;-84
2021/05/31 13:13:04;;;;;;;3.85;1.80;;;;;;;26.75;30.60;100542.84;5397246;26;20051;-85
2021/05/31 13:15:45;;;;;;;4.32;2.50;;;;;;;26.00;31.00;100538.13;5396326;26;20067;-84
2021/05/31 13:18:22;;;;;;;3.17;2.03;;;;;;;26.31;31.21;100538.72;5398123;26;20083;-84
2021/05/31 13:21:05;;;;;;;3.15;2.45;;;;;;;26.60;32.62;100547.50;5415618;26;20071;-84
2021/05/31 13:23:36;;;;;;;3.75;2.15;;;;;;;25.73;30.21;100535.44;5411520;26;20059;-84
2021/05/31 13:26:24;;;;;;;2.95;2.10;;;;;;;24.53;30.80;100546.72;5410648;26;20059;-83
2021/05/31 13:28:58;;;;;;;3.40;2.22;;;;;;;24.05;30.03;100544.22;5392198;26;21008;-84
2021/05/31 13:31:33;;;;;;;4.35;2.67;;;;;;;23.73;30.96;100546.97;5388914;26;20130;-83
2021/05/31 13:34:14;;;;;;;3.30;2.50;;;;;;;23.64;31.53;100543.94;5379824;26;20446;-86
2021/05/31 13:36:41;;;;;;;2.85;2.60;;;;;;;23.42;31.22;100541.63;5409543;26;20066;-85
2021/05/31 13:39:16;;;;;;;3.70;2.92;;;;;;;23.63;31.44;100537.69;5389417;26;20063;-86
2021/05/31 13:41:47;;;;;;;3.58;2.20;;;;;;;22.88;33.69;100540.09;5391187;26;20026;-84
2021/05/31 13:44:22;;;;;;;4.15;3.03;;;;;;;22.99;32.86;100538.66;5393106;26;20383;-85
2021/05/31 13:46:52;;;;;;;3.30;2.50;;;;;;;23.24;33.67;100530.12;5412439;26;20052;-82
2021/05/31 13:49:23;;;;;;;3.15;2.47;;;;;;;22.64;34.38;100530.69;5391013;26;20038;-84
2021/05/31 13:52:01;;;;;;;3.35;2.83;;;;;;;23.26;34.08;100528.22;5410287;26;20052;-84
2021/05/31 13:54:40;;;;;;;3.58;2.60;;;;;;;23.16;34.99;100527.00;5391049;26;20048;-83
2021/05/31 13:57:10;;;;;;;4.75;2.47;;;;;;;22.97;35.87;100528.03;5392087;26;20056;-83
2021/05/31 13:59:37;;;;;;;3.53;2.65;;;;;;;23.85;34.17;100515.00;5390475;26;20116;-81
2021/05/31 14:02:13;;;;;;;3.55;3.05;;;;;;;23.79;34.43;100517.09;5390872;26;20051;-82
2021/05/31 14:04:43;;;;;;;2.70;2.20;;;;;;;23.69;33.10;100515.03;5392262;26;20043;-83
2021/05/31 14:07:11;;;;;;;2.45;2.03;;;;;;;23.69;31.50;100509.66;5393833;26;20080;-82
2021/05/31 14:09:38;;;;;;;4.95;2.80;;;;;;;23.17;33.26;100494.75;5397688;26;20074;-84
2021/05/31 14:12:06;;;;;;;5.15;2.85;;;;;;;24.32;33.05;100495.16;5392654;26;20124;-83
2021/05/31 14:14:33;;;;;;;5.15;3.20;;;;;;;24.54;31.28;100486.69;5408785;26;20060;-82
2021/05/31 14:17:00;;;;;;;2.95;2.45;;;;;;;24.34;34.02;100490.59;5391901;26;20078;-82
2021/05/31 14:19:27;;;;;;;5.07;3.00;;;;;;;24.94;30.69;100482.31;5390036;26;20108;-82
2021/05/31 14:21:54;;;;;;;3.97;2.80;;;;;;;24.40;31.84;100490.19;5410153;26;20488;-81
2021/05/31 14:24:23;;;;;;;4.05;2.42;;;;;;;23.69;32.45;100510.53;5391407;26;20413;-81
2021/05/31 14:26:50;;;;;;;;;;;;;;;23.36;32.28;100507.97;5410427;26;20060;-81
2021/05/31 14:29:17;;;;;;;5.00;2.95;;;;;;;22.81;34.49;100511.91;5409870;26;20244;-82
2021/05/31 14:31:44;;;;;;;7.65;2.58;;;;;;;22.21;34.82;100522.28;5410742;26;20055;-81
2021/05/31 14:34:11;;;;;;;4.40;3.12;;;;;;;22.29;33.82;100519.19;5409389;26;20058;-82
2021/05/31 14:36:38;;;;;;;6.12;3.30;;;;;;;22.33;34.52;100515.41;5391037;26;20052;-82
2021/05/31 14:39:05;;;;;;;3.83;2.60;;;;;;;22.13;35.21;100508.41;5409676;26;20074;-82
2021/05/31 14:41:34;;;;;;;3.28;2.42;;;;;;;22.27;34.34;100505.03;5409947;26;20356;-83
2021/05/31 14:44:02;;;;;;;2.62;2.35;;;;;;;23.18;33.49;100501.84;5409878;26;20474;-82
2021/05/31 14:46:29;;;;;;;4.62;2.53;;;;;;;22.90;34.29;100499.81;5389928;26;20520;-83
2021/05/31 14:48:56;;;;;;;3.80;2.62;;;;;;;23.33;33.39;100492.06;5410218;26;20059;-85
2021/05/31 14:51:23;;;;;;;6.35;2.62;;;;;;;23.47;32.88;100488.56;5392502;26;20059;-83
2021/05/31 14:53:50;;;;;;;2.53;2.03;;;;;;;23.35;33.42;100499.09;5410977;26;20621;-83
2021/05/31 14:56:17;;;;;;;3.78;3.00;;;;;;;23.12;33.47;100510.25;5409934;26;20074;-82
2021/05/31 14:58:44;;;;;;;6.07;1.80;;;;;;;21.80;32.60;100509.19;5409873;26;20103;-83
2021/05/31 15:01:11;;;;;;;4.43;2.30;;;;;;;21.98;33.70;100507.38;5409971;26;20093;-82
2021/05/31 15:03:38;;;;;;;3.85;1.90;;;;;;;21.59;34.08;100513.81;5409901;26;20059;-84
2021/05/31 15:06:05;;;;;;;5.97;3.05;;;;;;;21.99;34.58;100507.28;5409899;26;20069;-83
2021/05/31 15:08:33;;;;;;;3.87;2.40;;;;;;;22.85;34.26;100500.09;5409816;26;20078;-82
2021/05/31 15:11:01;;;;;;;2.80;2.00;;;;;;;22.99;33.55;100501.16;5409714;26;20051;-83
2021/05/31 15:13:28;;;;;;;3.25;2.37;;;;;;;23.82;32.36;100499.09;5409926;26;20414;-82
2021/05/31 15:15:55;;;;;;;3.22;2.05;;;;;;;24.20;32.56;100502.16;5409951;26;20213;-83
2021/05/31 15:18:22;;;;;;;6.50;2.25;;;;;;;24.47;32.18;100499.62;5409885;26;20447;-84
2021/05/31 15:20:50;;;;;;;3.10;2.10;;;;;;;24.79;31.69;100497.59;5409391;26;20084;-83
2021/05/31 15:23:17;;;;;;;4.18;2.40;;;;;;;24.79;32.45;100486.00;5409926;26;20102;-83
2021/05/31 15:25:44;;;;;;;2.28;1.83;;;;;;;24.21;32.81;100485.97;5389162;26;20055;-83
2021/05/31 15:28:11;;;;;;;2.17;1.92;;;;;;;24.15;32.27;100497.09;5409887;26;20075;-82
2021/05/31 15:30:38;;;;;;;6.07;1.67;;;;;;;23.34;30.43;100496.47;5409313;26;20085;-82
2021/05/31 15:33:05;;;;;;;3.12;1.60;;;;;;;22.64;30.59;100499.41;5410090;26;20096;-82
2021/05/31 15:35:32;;;;;;;3.20;1.58;;;;;;;22.79;28.94;100499.53;5409754;26;20468;-82
2021/05/31 15:37:59;;;;;;;1.70;1.50;;;;;;;22.96;28.98;100498.63;5409638;26;20075;-82
2021/05/31 15:40:26;;;;;;;2.58;1.90;;;;;;;22.53;30.05;100506.31;5409475;26;20067;-82
2021/05/31 15:42:53;;;;;;;5.40;1.80;;;;;;;22.40;30.32;100501.59;5409608;26;20100;-82
2021/05/31 15:45:21;;;;;;;6.40;2.25;;;;;;;22.06;31.37;100501.59;5409480;26;20110;-82
2021/05/31 15:47:49;;;;;;;4.60;2.08;;;;;;;22.37;31.61;100496.41;5409712;26;20075;-82
2021/05/31 15:50:18;;;;;;;2.60;1.90;;;;;;;22.84;31.17;100489.44;5409468;26;20051;-82
2021/05/31 15:52:46;;;;;;;3.85;1.85;;;;;;;22.97;31.85;100495.88;5409508;26;20091;-82
2021/05/31 15:55:15;;;;;;;2.58;2.00;;;;;;;23.06;31.80;100492.69;5409507;26;20059;-82
2021/05/31 15:57:42;;;;;;;3.03;1.65;;;;;;;23.25;31.84;100486.28;5409854;26;20055;-82
2021/05/31 16:00:10;;;;;;;6.78;2.20;;;;;;;23.74;31.58;100491.50;5388982;26;20048;-82
2021/05/31 16:02:37;;;;;;;4.15;2.17;;;;;;;22.73;32.88;100503.41;5409506;26;20408;-82
2021/05/31 16:05:39;;;;;;;5.82;2.03;;;;;;;22.44;33.24;100497.84;5409343;26;20120;-84
2021/05/31 16:08:11;;;;;;;9.05;2.47;;;;;;;22.17;33.85;100497.47;5389411;26;20090;-82
2021/05/31 16:10:43;;;;;;;6.20;1.90;;;;;;;22.57;33.78;100497.16;5389558;26;20533;-84
2021/05/31 16:13:11;;;;;;;3.95;2.67;;;;;;;22.32;34.44;100511.00;5409701;26;20055;-85
2021/05/31 16:15:42;;;;;;;4.35;2.70;;;;;;;22.41;34.03;100505.16;5389644;26;20094;-84
2021/05/31 16:18:12;;;;;;;3.67;2.58;;;;;;;21.83;35.70;100509.03;5409502;26;20056;-81
2021/05/31 16:20:42;;;;;;;4.25;2.72;;;;;;;21.01;36.66;100517.44;5389469;26;20478;-84
2021/05/31 16:25:49;;;;;;;3.70;2.55;;;;;;;21.19;36.05;100517.50;5409403;26;20113;-83
2021/05/31 16:28:19;;;;;;;4.37;2.78;;;;;;;20.81;37.09;100520.19;5409455;26;20082;-83
2021/05/31 16:31:01;;;;;;;7.80;3.45;;;;;;;20.64;37.79;100510.25;5389941;26;20075;-84
2021/05/31 16:33:41;;;;;;;4.50;2.55;;;;;;;20.33;38.05;100508.09;5409211;26;20050;-84
2021/05/31 16:36:08;;;;;;;6.50;2.83;;;;;;;21.05;37.06;100508.34;5388877;26;20068;-83
2021/05/31 16:38:35;;;;;;;4.45;2.50;;;;;;;20.66;37.91;100496.88;5409384;26;20074;-82
2021/05/31 16:41:02;;;;;;;5.03;2.25;;;;;;;21.26;37.22;100503.75;5409120;26;20110;-83
2021/05/31 16:43:29;;;;;;;4.37;2.62;;;;;;;20.70;38.67;100509.13;5389043;26;20049;-83
2021/05/31 16:45:56;;;;;;;6.43;2.95;;;;;;;21.47;37.25;100504.59;5409289;26;20055;-83
2021/05/31 16:48:24;;;;;;;5.03;2.40;;;;;;;20.37;38.58;100510.53;5409576;26;20758;-83
2021/05/31 16:50:51;;;;;;;4.78;2.28;;;;;;;20.25;39.25;100520.91;5409263;26;20070;-83
2021/05/31 16:53:18;;;;;;;4.80;2.25;;;;;;;20.12;40.63;100525.91;5409730;26;20114;-82
2021/05/31 16:55:45;;;;;;;3.67;1.92;;;;;;;19.96;39.67;100537.22;5409244;26;20461;-83
2021/05/31 16:58:11;;;;;;;4.00;2.20;;;;;;;19.70;40.08;100537.44;5409982;26;20060;-82
2021/05/31 17:00:39;;;;;;;11.32;3.15;;;;;;;19.79;39.49;100533.53;5410278;26;20072;-82
2021/05/31 17:03:06;;;;;;;4.03;2.75;;;;;;;19.88;38.71;100539.38;5410481;26;20212;-82
2021/05/31 17:05:35;;;;;;;3.30;2.10;;;;;;;19.94;38.59;100535.53;5410128;26;20397;-82
2021/05/31 17:08:06;;;;;;;8.55;2.10;;;;;;;19.75;38.90;100538.13;5389961;26;20083;-82
2021/05/31 17:10:39;;;;;;;11.02;2.80;;;;;;;20.04;38.50;100546.72;5410814;26;20062;-82
2021/05/31 17:21:19;;;;;;;7.90;3.08;;;;;;;18.90;40.75;100543.22;5409921;26;20473;-82
2021/05/31 17:23:46;;;;;;;3.05;2.47;;;;;;;18.96;40.91;100537.69;5410427;26;20040;-82
2021/05/31 17:26:13;;;;;;;4.97;2.50;;;;;;;19.10;40.91;100531.81;5389890;26;20420;-82
2021/05/31 17:28:42;;;;;;;4.00;2.42;;;;;;;19.40;40.26;100526.22;5390071;26;20119;-82
2021/05/31 17:33:46;;;;;;;4.62;3.00;;;;;;;20.24;38.49;100530.72;5410450;26;20055;-82
2021/05/31 17:36:17;;;;;;;6.97;4.00;;;;;;;20.74;38.10;100529.41;5410346;26;20099;-82
2021/05/31 17:38:44;;;;;;;9.73;4.53;;;;;;;20.81;38.77;100526.38;5410571;26;20063;-82
2021/05/31 17:41:11;;;;;;;6.62;3.95;;;;;;;20.67;38.15;100523.47;5410548;26;20110;-81
2021/05/31 17:43:38;;;;;;;4.95;3.25;;;;;;;20.91;37.83;100531.28;5410282;26;20065;-82
2021/05/31 17:46:06;;;;;;;7.68;3.20;;;;;;;20.87;37.99;100531.44;5410439;26;20466;-81
2021/05/31 17:48:33;;;;;;;5.18;2.87;;;;;;;21.17;38.34;100524.72;5410217;26;20126;-83
2021/05/31 17:51:02;;;;;;;6.78;3.08;;;;;;;21.37;37.53;100524.66;5410213;26;20052;-82
2021/05/31 17:53:30;;;;;;;6.85;2.97;;;;;;;21.42;37.02;100525.31;5410246;26;20219;-82
2021/05/31 17:55:58;;;;;;;7.78;3.65;;;;;;;21.52;36.67;100528.41;5410167;26;20104;-82
2021/05/31 17:58:25;;;;;;;8.68;3.08;;;;;;;21.55;36.68;100528.25;5410327;26;20110;-82
2021/05/31 18:00:52;;;;;;;5.05;3.08;;;;;;;21.14;37.09;100531.06;5410341;26;20093;-81